Terminal Aerodrome Forecast
Issued by NWS

Home | Current Version | Previous Version | Graphics & Text | Print | Product List | Glossary On
Versions: 1 2 3 4 5 6 7 8 9 10 11 12 13 14 15 16 17 18 19 20 21 22 23 24 25 26 27
000
FTUS43 KGRB 171700
TAFATW
TAF
KATW 171739Z 1718/1818 01006KT P6SM BKN020
     FM171900 06009KT P6SM BKN025
     FM172200 07007KT P6SM SCT030
     FM180200 08004KT P6SM SCT250
     FM181000 04005KT P6SM BKN100
     FM181400 14006KT 5SM BR BKN035 OVC060 PROB30 1815/1818 4SM
      -TSRA BR OVC030CB=

USA.gov is the U.S. government's official web portal to all federal, state and local government web resources and services.